Time;durP1;ratioP1;P1;durP2;ratioP2;P2;SDS_P1;SDS_P2;PMS_P1;PMS_P2;Temp;Humidity;BMP_temperature;BMP_pressure;BME280_temperature;BME280_humidity;BME280_pressure;Samples;Min_cycle;Max_cycle;Signal;HPM_P1;HPM_P2
2022/05/05 00:00:48;;;;;;;26.70;18.67;;;;;;;9.87;59.33;98673.31;5047726;28;20021;-79
2022/05/05 00:03:14;;;;;;;28.40;17.67;;;;;;;9.85;60.07;98681.00;5047727;28;20086;-80
2022/05/05 00:05:39;;;;;;;28.92;18.20;;;;;;;9.82;59.31;98678.81;5047893;28;20107;-79
2022/05/05 00:08:05;;;;;;;27.20;17.83;;;;;;;9.82;59.50;98685.13;5048057;28;20083;-79
2022/05/05 00:15:58;;;;;;;30.65;19.65;;;;;;;9.74;59.25;98684.94;5047256;28;20075;-79
2022/05/05 00:18:23;;;;;;;26.75;18.58;;;;;;;9.72;59.62;98678.94;5047221;28;20025;-79
2022/05/05 00:20:48;;;;;;;28.38;19.25;;;;;;;9.68;59.48;98679.50;5046963;28;20440;-79
2022/05/05 00:23:14;;;;;;;31.08;20.13;;;;;;;9.66;59.57;98680.88;5050308;28;20036;-78
2022/05/05 00:25:40;;;;;;;33.90;19.90;;;;;;;9.62;59.38;98671.56;5051777;28;20025;-79
2022/05/05 00:28:05;;;;;;;31.25;19.35;;;;;;;9.56;59.17;98679.03;5052377;28;20021;-79
2022/05/05 00:30:31;;;;;;;29.23;18.80;;;;;;;9.50;59.94;98671.94;5051520;28;20024;-79
2022/05/05 00:32:56;;;;;;;26.42;17.75;;;;;;;9.45;59.83;98672.81;5051876;28;20021;-79
2022/05/05 00:35:21;;;;;;;28.40;18.17;;;;;;;9.40;59.64;98667.34;5051934;28;20033;-79
2022/05/05 00:37:47;;;;;;;27.42;18.73;;;;;;;9.33;59.81;98669.56;5051607;28;20020;-78
2022/05/05 00:40:12;;;;;;;28.40;18.65;;;;;;;9.29;59.15;98665.78;5051230;28;20024;-78
2022/05/05 00:42:38;;;;;;;30.52;20.80;;;;;;;9.23;59.49;98671.28;5051041;28;20472;-79
2022/05/05 00:45:04;;;;;;;30.38;20.05;;;;;;;9.17;59.34;98661.44;5050813;28;20037;-78
2022/05/05 00:47:29;;;;;;;34.92;20.77;;;;;;;9.15;59.73;98669.16;5051878;28;20017;-79
2022/05/05 00:49:59;;;;;;;31.27;20.35;;;;;;;9.12;59.88;98663.41;5051529;28;20107;-78
2022/05/05 00:52:25;;;;;;;36.65;22.60;;;;;;;9.09;60.12;98662.88;5052210;28;20021;-78
2022/05/05 00:54:51;;;;;;;36.15;23.60;;;;;;;9.11;60.09;98664.50;5052571;28;20096;-79
2022/05/05 00:57:17;;;;;;;37.67;23.98;;;;;;;9.14;60.86;98666.69;5051351;28;20135;-77
2022/05/05 00:59:43;;;;;;;39.55;24.75;;;;;;;9.12;60.92;98660.66;5052430;28;20036;-77
2022/05/05 01:02:09;;;;;;;39.00;24.77;;;;;;;9.09;60.45;98664.78;5050932;28;20140;-77
2022/05/05 01:04:37;;;;;;;39.30;24.85;;;;;;;9.04;60.40;98665.63;5050730;28;20104;-77
2022/05/05 01:07:03;;;;;;;39.75;25.65;;;;;;;9.00;60.37;98661.00;5050497;28;20036;-77
2022/05/05 01:09:29;;;;;;;40.10;25.92;;;;;;;8.96;60.94;98666.22;5051358;28;20104;-78
2022/05/05 01:11:55;;;;;;;40.03;26.10;;;;;;;8.94;61.16;98661.03;5051711;28;20112;-77
2022/05/05 01:14:21;;;;;;;37.88;24.52;;;;;;;8.93;60.51;98666.78;5049163;28;20079;-77
2022/05/05 01:16:46;;;;;;;40.70;24.33;;;;;;;8.90;61.06;98673.63;5050785;28;20030;-77
2022/05/05 01:19:12;;;;;;;40.58;24.55;;;;;;;8.88;60.94;98656.66;5051130;28;20075;-77
2022/05/05 01:21:37;;;;;;;41.28;25.33;;;;;;;8.86;61.00;98660.78;5051325;28;20052;-77
2022/05/05 01:24:02;;;;;;;40.15;25.15;;;;;;;8.83;60.87;98669.56;5051314;28;20047;-77
2022/05/05 01:29:32;;;;;;;41.67;24.88;;;;;;;8.73;61.04;98664.94;5008440;28;20080;-78
2022/05/05 01:31:58;;;;;;;41.20;26.63;;;;;;;8.66;61.71;98665.22;5010619;28;20030;-78
2022/05/05 01:34:24;;;;;;;41.78;25.35;;;;;;;8.64;61.91;98662.78;5026500;28;20158;-78
2022/05/05 01:36:49;;;;;;;38.92;24.90;;;;;;;8.62;61.54;98664.97;5050016;28;20544;-77
2022/05/05 01:39:15;;;;;;;41.03;26.23;;;;;;;8.58;61.55;98663.91;5049926;28;20111;-78
2022/05/05 01:41:40;;;;;;;39.15;26.50;;;;;;;8.54;61.39;98662.00;5050195;28;20112;-78
2022/05/05 01:44:06;;;;;;;41.50;26.65;;;;;;;8.53;61.42;98661.16;5050030;28;20020;-77
2022/05/05 01:46:31;;;;;;;45.65;27.45;;;;;;;8.51;61.88;98663.38;5050164;28;20492;-77
2022/05/05 01:48:56;;;;;;;44.20;28.77;;;;;;;8.48;61.59;98658.41;5049607;28;20029;-78
2022/05/05 01:51:23;;;;;;;45.38;28.30;;;;;;;8.46;62.48;98657.88;5049801;28;20124;-77
2022/05/05 01:53:48;;;;;;;40.63;27.38;;;;;;;8.45;62.13;98658.97;5049935;28;20025;-77
2022/05/05 01:56:14;;;;;;;44.50;28.02;;;;;;;8.44;62.48;98655.44;5050288;28;20028;-78
2022/05/05 01:58:44;;;;;;;46.50;29.08;;;;;;;8.41;62.51;98661.44;5051020;28;20560;-77
2022/05/05 02:01:11;;;;;;;46.45;28.65;;;;;;;8.41;62.69;98666.09;5050078;28;20071;-77
2022/05/05 02:03:36;;;;;;;48.28;30.10;;;;;;;8.37;62.65;98665.84;5050067;28;20059;-77
2022/05/05 02:06:02;;;;;;;44.28;28.30;;;;;;;8.35;62.97;98665.28;5050289;28;20025;-78
2022/05/05 02:08:27;;;;;;;47.03;27.58;;;;;;;8.37;62.68;98674.03;5049449;28;20028;-78
2022/05/05 02:10:52;;;;;;;44.17;27.40;;;;;;;8.37;63.22;98670.47;5049396;28;20031;-80
2022/05/05 02:13:19;;;;;;;42.47;26.02;;;;;;;8.37;63.20;98675.94;5048960;28;20032;-79
2022/05/05 02:15:44;;;;;;;40.60;26.48;;;;;;;8.39;63.15;98677.31;5049617;28;20033;-79
2022/05/05 02:18:11;;;;;;;41.75;26.35;;;;;;;8.41;63.71;98680.59;5049674;28;20032;-80
2022/05/05 02:20:38;;;;;;;37.80;25.08;;;;;;;8.40;63.29;98672.66;5049342;28;20017;-79
2022/05/05 02:23:05;;;;;;;40.72;25.60;;;;;;;8.42;63.48;98684.13;5049457;28;20112;-80
2022/05/05 02:25:30;;;;;;;41.90;26.65;;;;;;;8.39;63.65;98688.25;5049526;28;20090;-80
2022/05/05 02:27:56;;;;;;;43.03;27.65;;;;;;;8.38;64.02;98689.34;5049179;28;20021;-80
2022/05/05 02:30:23;;;;;;;44.85;27.42;;;;;;;8.37;63.48;98679.50;5048868;28;20048;-79
2022/05/05 02:32:48;;;;;;;41.75;26.80;;;;;;;8.36;63.91;98691.53;5048941;28;20494;-80
2022/05/05 02:35:14;;;;;;;42.88;27.90;;;;;;;8.34;63.87;98686.34;5047956;28;20024;-79
2022/05/05 02:40:25;;;;;;;41.38;26.95;;;;;;;8.32;64.10;98688.53;5049182;28;20031;-80
2022/05/05 02:42:50;;;;;;;42.90;27.65;;;;;;;8.31;63.71;98688.78;5048657;28;20029;-79
2022/05/05 02:45:16;;;;;;;45.42;27.83;;;;;;;8.28;63.96;98695.63;5048406;28;20053;-78
2022/05/05 02:47:41;;;;;;;41.53;26.50;;;;;;;8.27;64.22;98704.09;5048869;28;20378;-79
2022/05/05 02:50:07;;;;;;;40.60;26.65;;;;;;;8.25;64.14;98689.88;5048581;28;20025;-79
2022/05/05 02:52:32;;;;;;;40.13;26.00;;;;;;;8.23;64.42;98694.81;5048738;28;20033;-79
2022/05/05 02:54:58;;;;;;;41.65;25.70;;;;;;;8.21;64.21;98695.09;5048655;28;20025;-80
2022/05/05 02:57:24;;;;;;;37.10;24.52;;;;;;;8.20;64.45;98693.47;5048860;28;20025;-80
2022/05/05 02:59:54;;;;;;;40.10;25.70;;;;;;;8.15;64.24;98699.72;5050506;28;20029;-79
2022/05/05 03:02:20;;;;;;;41.65;27.67;;;;;;;8.14;64.32;98691.81;5048933;28;20025;-80
2022/05/05 03:04:46;;;;;;;41.95;26.67;;;;;;;8.14;64.39;98691.81;5048497;28;20033;-79
2022/05/05 03:07:12;;;;;;;41.88;27.08;;;;;;;8.13;63.98;98695.66;5048722;28;20049;-78
2022/05/05 03:09:39;;;;;;;47.58;27.67;;;;;;;8.13;64.54;98696.47;5048182;28;20100;-79
2022/05/05 03:12:05;;;;;;;46.70;28.92;;;;;;;8.13;64.81;98698.38;5046682;28;20028;-79
2022/05/05 03:14:31;;;;;;;61.33;31.73;;;;;;;8.13;65.10;98696.47;5048430;28;20039;-79
2022/05/05 03:16:56;;;;;;;49.45;29.20;;;;;;;8.12;64.66;98700.31;5048270;28;20029;-79
2022/05/05 03:19:22;;;;;;;51.10;28.90;;;;;;;8.11;64.77;98704.13;5048481;28;20048;-80
2022/05/05 03:21:47;;;;;;;42.35;25.92;;;;;;;8.11;65.01;98704.13;5049419;28;20047;-80
2022/05/05 03:24:13;;;;;;;37.17;25.63;;;;;;;8.11;64.62;98697.81;5048844;28;20074;-80
2022/05/05 03:26:38;;;;;;;39.83;25.50;;;;;;;8.12;64.99;98696.75;5048789;28;20021;-80
2022/05/05 03:29:06;;;;;;;44.55;27.02;;;;;;;8.15;64.88;98696.19;5048217;28;20600;-79
2022/05/05 03:31:32;;;;;;;39.90;25.35;;;;;;;8.17;65.42;98699.47;5048394;28;20064;-80
2022/05/05 03:33:58;;;;;;;41.20;25.42;;;;;;;8.20;65.42;98698.91;5048764;28;20107;-80
2022/05/05 03:36:24;;;;;;;38.50;24.83;;;;;;;8.21;65.00;98703.28;5047651;28;20017;-80
2022/05/05 03:38:50;;;;;;;39.50;24.33;;;;;;;8.25;64.89;98707.13;5048404;28;20043;-80
2022/05/05 03:41:16;;;;;;;37.13;23.83;;;;;;;8.30;65.01;98706.28;5048464;28;20060;-79
2022/05/05 03:43:41;;;;;;;36.45;23.42;;;;;;;8.33;65.16;98706.56;5048348;28;20048;-80
2022/05/05 03:46:07;;;;;;;36.80;23.38;;;;;;;8.39;65.27;98712.00;5048629;28;20140;-79
2022/05/05 03:48:33;;;;;;;36.22;23.98;;;;;;;8.44;65.44;98701.91;5048434;28;20087;-79
2022/05/05 03:50:58;;;;;;;35.38;23.35;;;;;;;8.48;65.18;98707.63;5048715;28;20033;-80
2022/05/05 03:53:24;;;;;;;36.00;23.90;;;;;;;8.52;65.43;98708.75;5048191;28;20362;-79
2022/05/05 03:55:49;;;;;;;35.25;24.17;;;;;;;8.57;65.17;98719.66;5048492;28;20029;-79
2022/05/05 03:58:15;;;;;;;35.65;24.33;;;;;;;8.61;65.51;98718.03;5049867;28;20037;-79
2022/05/05 04:00:40;;;;;;;40.28;24.65;;;;;;;8.63;65.44;98707.63;5051967;28;20029;-79
2022/05/05 04:05:50;;;;;;;38.35;23.30;;;;;;;8.73;65.70;98714.16;5051402;28;20601;-79
2022/05/05 04:08:16;;;;;;;37.35;25.17;;;;;;;8.78;65.80;98714.13;5052458;28;20112;-80
2022/05/05 04:10:41;;;;;;;36.05;24.08;;;;;;;8.85;66.04;98716.59;5052468;28;20098;-79
2022/05/05 04:13:06;;;;;;;41.03;27.02;;;;;;;8.89;65.94;98723.94;5052527;28;20049;-79
2022/05/05 04:15:33;;;;;;;36.42;24.90;;;;;;;8.95;65.89;98730.25;5052718;28;20055;-79
2022/05/05 04:18:00;;;;;;;39.83;25.50;;;;;;;9.01;66.35;98720.09;5052676;28;20120;-79
2022/05/05 04:20:26;;;;;;;40.30;26.17;;;;;;;9.05;66.24;98721.97;5052114;28;20103;-79
2022/05/05 04:22:51;;;;;;;39.55;26.83;;;;;;;9.11;66.53;98720.06;5051595;28;20111;-79
2022/05/05 04:25:17;;;;;;;43.50;27.55;;;;;;;9.17;66.98;98729.84;5052572;28;20380;-79
2022/05/05 04:27:43;;;;;;;42.97;28.05;;;;;;;9.22;66.90;98731.78;5051877;28;20355;-78
2022/05/05 04:30:10;;;;;;;45.38;27.95;;;;;;;9.30;66.58;98730.34;5051541;28;20037;-80
2022/05/05 04:32:35;;;;;;;45.00;28.10;;;;;;;9.35;66.69;98730.34;5052026;28;20033;-79
2022/05/05 04:35:01;;;;;;;41.67;27.85;;;;;;;9.44;67.21;98730.56;5051851;28;20546;-79
2022/05/05 04:37:28;;;;;;;43.08;28.05;;;;;;;9.51;66.93;98733.81;5052366;28;20400;-79
2022/05/05 04:39:53;;;;;;;42.35;27.58;;;;;;;9.61;67.02;98739.22;5051638;28;20039;-79
2022/05/05 04:42:18;;;;;;;41.97;27.77;;;;;;;9.68;67.52;98731.53;5050565;28;20940;-79
2022/05/05 04:44:44;;;;;;;38.72;26.42;;;;;;;9.77;66.86;98736.41;5051789;28;20470;-80
2022/05/05 04:47:09;;;;;;;40.13;27.55;;;;;;;9.88;67.52;98740.69;5052135;28;20033;-79
2022/05/05 04:49:34;;;;;;;40.38;27.23;;;;;;;9.95;66.77;98737.66;5051804;28;20028;-80
2022/05/05 04:52:00;;;;;;;44.08;27.10;;;;;;;10.02;67.21;98742.81;5051971;28;20112;-80
2022/05/05 04:54:26;;;;;;;40.55;27.73;;;;;;;10.07;66.80;98737.28;5051770;28;20021;-80
2022/05/05 04:56:51;;;;;;;40.28;26.33;;;;;;;10.17;67.14;98739.13;5051846;28;20020;-79
2022/05/05 04:59:17;;;;;;;38.67;26.55;;;;;;;10.21;66.93;98740.19;5052586;28;20209;-79
2022/05/05 05:01:42;;;;;;;38.70;25.85;;;;;;;10.28;67.00;98743.41;5051697;28;20083;-79
2022/05/05 05:04:07;;;;;;;38.03;24.83;;;;;;;10.39;66.91;98753.19;5051609;28;20032;-79
2022/05/05 05:06:34;;;;;;;34.30;24.35;;;;;;;10.49;67.40;98743.25;5051072;28;20041;-80
2022/05/05 05:08:59;;;;;;;32.05;21.33;;;;;;;10.56;67.28;98747.31;5050409;28;20025;-80
2022/05/05 05:11:25;;;;;;;32.42;21.38;;;;;;;10.64;67.23;98740.38;5050801;28;20051;-80
2022/05/05 05:13:50;;;;;;;31.00;21.92;;;;;;;10.73;67.00;98740.53;5050867;28;20021;-78
2022/05/05 05:16:16;;;;;;;34.22;21.75;;;;;;;10.82;66.54;98744.31;5050346;28;20086;-79
2022/05/05 05:18:42;;;;;;;30.50;21.42;;;;;;;10.92;66.98;98743.38;5051292;28;20068;-79
2022/05/05 05:21:07;;;;;;;32.38;21.40;;;;;;;11.01;66.99;98743.53;5049576;28;20457;-80
2022/05/05 05:23:32;;;;;;;30.25;20.83;;;;;;;11.09;67.75;98742.88;5050224;28;20504;-77
2022/05/05 05:25:58;;;;;;;32.70;21.75;;;;;;;11.20;67.57;98746.34;5049814;28;20440;-74
2022/05/05 05:28:24;;;;;;;31.35;20.80;;;;;;;11.30;67.18;98745.41;5049118;28;20032;-75
2022/05/05 05:30:50;;;;;;;33.20;21.40;;;;;;;11.42;67.72;98744.97;5050763;28;20029;-76
2022/05/05 05:33:16;;;;;;;28.73;19.92;;;;;;;11.54;67.09;98753.59;5051646;28;20492;-76
2022/05/05 05:35:41;;;;;;;30.70;20.42;;;;;;;11.65;67.41;98748.78;5052309;28;20032;-76
2022/05/05 05:38:07;;;;;;;29.58;19.52;;;;;;;11.76;67.39;98742.03;5052916;28;20079;-76
2022/05/05 05:40:33;;;;;;;27.30;17.98;;;;;;;11.81;66.96;98749.38;5050359;28;20098;-76
2022/05/05 05:42:58;;;;;;;27.15;17.90;;;;;;;11.86;66.94;98746.56;5050525;28;20017;-75
2022/05/05 05:45:24;;;;;;;24.45;17.20;;;;;;;11.94;67.13;98758.00;5050676;28;20826;-76
2022/05/05 05:47:49;;;;;;;23.60;16.63;;;;;;;12.01;66.48;98758.47;5050606;28;20087;-76
2022/05/05 05:50:15;;;;;;;23.55;15.52;;;;;;;12.10;66.45;98762.16;5050351;28;20375;-76
2022/05/05 05:52:40;;;;;;;21.83;15.32;;;;;;;12.17;66.13;98761.78;5051610;28;20044;-76
2022/05/05 05:55:06;;;;;;;22.17;14.73;;;;;;;12.23;66.40;98757.81;5050775;28;20112;-76
2022/05/05 05:57:32;;;;;;;22.20;14.00;;;;;;;12.31;66.47;98764.59;5050686;28;20036;-76
2022/05/05 05:59:57;;;;;;;20.33;14.45;;;;;;;12.32;66.58;98761.53;5050578;28;20029;-76
2022/05/05 06:05:07;;;;;;;18.92;13.55;;;;;;;12.42;66.19;98765.22;5047417;28;20121;-76
2022/05/05 06:07:32;;;;;;;19.33;13.88;;;;;;;12.47;66.14;98763.19;5049009;28;20108;-76
2022/05/05 06:09:58;;;;;;;18.77;13.25;;;;;;;12.54;65.98;98765.59;5048465;28;20056;-76
2022/05/05 06:12:23;;;;;;;23.80;13.23;;;;;;;12.61;66.03;98767.94;5049502;28;20029;-77
2022/05/05 06:14:49;;;;;;;16.77;12.43;;;;;;;12.70;65.35;98768.88;5049849;28;20035;-77
2022/05/05 06:17:14;;;;;;;16.88;11.73;;;;;;;12.76;65.49;98761.34;5050271;28;20108;-76
2022/05/05 06:19:41;;;;;;;17.02;10.88;;;;;;;12.85;65.38;98766.94;5049350;28;20029;-76
2022/05/05 06:22:07;;;;;;;14.38;10.90;;;;;;;12.95;65.56;98775.03;5051759;28;20104;-77
2022/05/05 06:24:32;;;;;;;15.40;10.98;;;;;;;13.07;65.40;98780.84;5049149;28;20115;-77
2022/05/05 06:26:58;;;;;;;13.98;10.90;;;;;;;13.22;65.45;98778.94;5045544;28;20091;-76
2022/05/05 06:29:25;;;;;;;16.48;11.00;;;;;;;13.34;65.19;98775.66;5050764;28;20029;-76
2022/05/05 06:31:50;;;;;;;15.05;12.05;;;;;;;13.47;65.34;98771.28;5051242;28;20393;-76
2022/05/05 06:34:16;;;;;;;18.05;12.48;;;;;;;13.65;65.15;98764.00;5053205;28;20037;-77
2022/05/05 06:36:41;;;;;;;19.67;13.50;;;;;;;13.84;65.01;98764.69;5049346;28;20112;-77
2022/05/05 06:39:07;;;;;;;17.50;12.13;;;;;;;14.03;64.87;98773.94;5047783;28;20485;-77
2022/05/05 06:41:32;;;;;;;16.33;11.45;;;;;;;14.20;64.80;98771.28;5049284;28;20074;-77
2022/05/05 06:43:57;;;;;;;16.92;11.10;;;;;;;14.38;64.22;98774.19;5049643;28;20029;-75
2022/05/05 06:46:23;;;;;;;19.48;11.70;;;;;;;14.56;64.38;98764.09;5048426;28;20099;-74
2022/05/05 06:48:48;;;;;;;15.60;11.48;;;;;;;14.72;63.74;98772.81;5055434;28;20358;-74
2022/05/05 06:51:14;;;;;;;16.73;11.27;;;;;;;14.96;63.68;98766.09;5050983;28;20444;-74
2022/05/05 06:53:39;;;;;;;15.27;10.52;;;;;;;15.22;63.71;98765.41;5048547;28;20367;-73
2022/05/05 06:56:05;;;;;;;14.18;10.98;;;;;;;15.40;63.23;98774.56;5049296;28;20074;-73
2022/05/05 06:58:30;;;;;;;17.27;11.27;;;;;;;15.57;63.00;98765.50;5049407;28;20543;-74
2022/05/05 07:03:40;;;;;;;12.38;8.63;;;;;;;15.84;62.17;98772.72;5050914;28;20040;-74
2022/05/05 07:06:10;;;;;;;12.68;8.85;;;;;;;15.92;61.89;98769.13;5050515;28;20025;-74
2022/05/05 07:11:21;;;;;;;13.65;8.57;;;;;;;16.08;61.27;98774.19;5048459;28;20090;-74
2022/05/05 07:13:47;;;;;;;11.85;8.20;;;;;;;16.11;61.11;98779.09;5050397;28;20032;-74
2022/05/05 07:16:12;;;;;;;13.02;7.97;;;;;;;16.14;60.18;98783.97;5049009;28;20022;-73
2022/05/05 07:18:37;;;;;;;15.15;9.30;;;;;;;16.09;59.67;98775.84;5050611;28;20065;-74
2022/05/05 07:21:03;;;;;;;10.75;7.95;;;;;;;16.05;58.97;98778.44;5050439;28;20052;-74
2022/05/05 07:23:29;;;;;;;12.30;8.75;;;;;;;16.07;59.66;98778.94;5050746;28;20032;-73
2022/05/05 07:25:54;;;;;;;13.48;9.18;;;;;;;16.12;58.82;98779.88;5048934;28;20037;-73
2022/05/05 07:28:19;;;;;;;11.20;7.95;;;;;;;16.15;59.06;98780.06;5052722;28;20652;-73
2022/05/05 07:30:45;;;;;;;9.75;7.38;;;;;;;16.19;58.81;98778.28;5051998;28;20037;-75
2022/05/05 07:33:11;;;;;;;11.25;7.13;;;;;;;16.22;58.17;98774.03;5052130;28;20039;-74
2022/05/05 07:35:39;;;;;;;8.63;6.32;;;;;;;16.29;58.74;98785.44;5050154;28;20436;-76
2022/05/05 07:38:05;;;;;;;9.18;6.35;;;;;;;16.36;58.36;98773.84;5049423;28;20037;-75
2022/05/05 07:40:31;;;;;;;9.80;6.00;;;;;;;16.45;57.98;98785.75;5049876;28;20032;-75
2022/05/05 07:42:58;;;;;;;8.15;5.25;;;;;;;16.52;56.80;98776.94;5051240;28;20032;-75
2022/05/05 07:45:23;;;;;;;8.23;4.90;;;;;;;16.57;57.50;98784.25;5044853;28;20045;-74
2022/05/05 07:47:49;;;;;;;8.43;5.10;;;;;;;16.66;56.67;98783.09;5046885;28;20668;-73
2022/05/05 07:50:15;;;;;;;11.10;5.25;;;;;;;16.74;56.42;98784.22;5048208;28;20037;-73
2022/05/05 07:52:41;;;;;;;7.70;5.03;;;;;;;16.80;56.23;98782.09;5048875;28;20436;-75
2022/05/05 07:55:08;;;;;;;5.38;3.47;;;;;;;16.86;55.82;98778.00;5049362;28;20036;-74
2022/05/05 07:57:42;;;;;;;4.35;3.00;;;;;;;16.88;55.38;98786.81;5048067;28;20029;-76
2022/05/05 08:00:10;;;;;;;4.22;3.53;;;;;;;16.90;55.71;98789.22;5048809;28;20021;-75
2022/05/05 08:02:36;;;;;;;6.10;3.33;;;;;;;16.92;55.05;98790.53;5045579;28;20056;-74
2022/05/05 08:05:08;;;;;;;6.88;3.88;;;;;;;16.92;54.69;98786.94;5048876;28;20060;-74
2022/05/05 08:07:33;;;;;;;6.25;4.20;;;;;;;16.90;54.81;98792.00;5047690;28;20111;-75
2022/05/05 08:09:59;;;;;;;5.95;3.80;;;;;;;16.94;54.99;98790.22;5049038;28;20166;-74
2022/05/05 08:12:24;;;;;;;9.18;4.90;;;;;;;16.95;54.65;98800.94;5048106;28;20033;-75
2022/05/05 08:14:50;;;;;;;6.50;4.75;;;;;;;16.93;54.36;98799.66;5048449;28;20120;-73
2022/05/05 08:17:15;;;;;;;10.13;5.20;;;;;;;16.95;54.53;98789.06;5030135;28;20485;-74
2022/05/05 08:19:41;;;;;;;8.98;4.70;;;;;;;16.99;54.75;98790.06;5046095;28;20106;-75
2022/05/05 08:22:06;;;;;;;7.57;4.68;;;;;;;17.04;53.72;98794.59;5047862;28;20043;-76
2022/05/05 08:30:02;;;;;;;5.07;2.85;;;;;;;17.36;53.64;98789.56;5048525;28;20063;-76
2022/05/05 08:32:28;;;;;;;5.10;2.72;;;;;;;17.43;52.99;98792.63;5047077;28;20064;-75
2022/05/05 08:34:53;;;;;;;7.65;3.20;;;;;;;17.47;52.80;98787.25;5045685;28;20359;-77
2022/05/05 08:37:19;;;;;;;5.13;2.90;;;;;;;17.54;52.53;98793.88;5048673;28;20051;-75
2022/05/05 08:39:45;;;;;;;3.97;2.88;;;;;;;17.61;52.41;98795.31;5047813;28;20021;-75
2022/05/05 08:42:11;;;;;;;7.55;3.20;;;;;;;17.64;52.45;98797.44;5046276;28;20033;-75
2022/05/05 08:44:36;;;;;;;4.78;2.40;;;;;;;17.71;51.83;98790.19;5051828;28;20036;-77
2022/05/05 08:47:02;;;;;;;4.35;2.72;;;;;;;17.79;52.42;98791.28;5051981;28;20053;-75
2022/05/05 08:49:30;;;;;;;4.88;2.72;;;;;;;17.85;52.03;98784.38;5051761;28;20111;-75
2022/05/05 08:52:01;;;;;;;5.28;3.03;;;;;;;17.90;52.26;98783.41;5050851;28;20496;-75
2022/05/05 08:54:31;;;;;;;5.38;3.33;;;;;;;17.96;51.60;98786.78;5051342;28;20086;-73
2022/05/05 08:56:56;;;;;;;3.00;2.70;;;;;;;18.01;51.91;98783.84;5049578;28;20560;-74
2022/05/05 08:59:22;;;;;;;2.00;1.83;;;;;;;18.04;51.23;98776.78;5050080;28;20029;-75
2022/05/05 09:01:48;;;;;;;3.58;2.38;;;;;;;18.06;50.84;98789.19;5050835;28;20067;-75
2022/05/05 09:04:14;;;;;;;3.42;2.20;;;;;;;18.08;50.75;98780.50;5052311;28;20091;-74
2022/05/05 09:06:51;;;;;;;3.92;2.30;;;;;;;18.09;50.41;98779.34;5051798;28;20041;-71
2022/05/05 09:09:24;;;;;;;4.47;3.30;;;;;;;18.15;50.98;98789.09;5049814;28;20670;-72
2022/05/05 09:12:18;;;;;;;4.68;2.92;;;;;;;18.15;50.51;98783.56;5050760;28;20021;-72
2022/05/05 09:14:55;;;;;;;5.03;3.17;;;;;;;18.19;50.24;98778.13;5051318;28;20032;-71
2022/05/05 09:17:26;;;;;;;3.38;2.90;;;;;;;18.26;50.63;98775.63;5048645;28;20418;-70
2022/05/05 09:19:53;;;;;;;3.83;2.72;;;;;;;18.35;50.75;98783.88;5049921;28;20029;-75
2022/05/05 09:22:27;;;;;;;4.32;2.50;;;;;;;18.44;50.16;98782.66;5048911;28;20036;-73
2022/05/05 09:24:56;;;;;;;4.78;2.80;;;;;;;18.51;50.59;98784.88;5049548;28;20075;-69
2022/05/05 09:27:27;;;;;;;4.80;3.08;;;;;;;18.58;50.10;98781.53;5047695;28;20525;-70
2022/05/05 09:30:15;;;;;;;3.70;3.08;;;;;;;18.64;50.07;98782.94;5053024;28;20076;-70
2022/05/05 09:32:45;;;;;;;4.57;2.72;;;;;;;18.75;49.98;98777.75;5049455;28;20416;-71
2022/05/05 09:35:16;;;;;;;6.57;3.42;;;;;;;18.79;48.83;98780.69;5049173;28;20037;-71
2022/05/05 09:37:44;;;;;;;5.45;3.15;;;;;;;18.82;48.98;98774.44;5049993;28;20048;-73
2022/05/05 09:40:13;;;;;;;5.22;3.38;;;;;;;18.85;49.17;98777.31;5049034;28;20029;-76
2022/05/05 09:42:40;;;;;;;5.70;3.25;;;;;;;18.95;49.43;98778.84;5050627;28;20040;-76
2022/05/05 09:45:19;;;;;;;5.43;3.03;;;;;;;19.06;49.32;98773.69;5047694;28;20928;-73
2022/05/05 09:47:46;;;;;;;3.70;2.80;;;;;;;19.22;49.56;98775.78;5048886;28;20040;-74
2022/05/05 09:50:15;;;;;;;4.03;3.20;;;;;;;19.36;48.91;98772.69;5046507;28;20385;-74
2022/05/05 09:58:16;;;;;;;2.92;2.28;;;;;;;19.82;46.72;98770.53;5053626;28;20116;-75
2022/05/05 10:06:23;;;;;;;3.65;2.47;;;;;;;20.11;46.56;98763.09;5050993;28;20040;-76
2022/05/05 10:08:53;;;;;;;2.72;1.88;;;;;;;20.15;46.00;98761.22;5050950;28;20444;-76
2022/05/05 10:11:22;;;;;;;3.70;2.30;;;;;;;20.28;46.08;98748.06;5051274;28;20033;-76
2022/05/05 10:13:49;;;;;;;3.20;2.65;;;;;;;20.45;46.11;98755.28;5049392;28;20048;-76
2022/05/05 10:16:15;;;;;;;5.05;2.30;;;;;;;20.60;46.58;98752.88;5048229;28;20033;-75
2022/05/05 10:18:42;;;;;;;2.97;1.90;;;;;;;20.73;45.59;98753.66;5048085;28;20036;-77
2022/05/05 10:21:37;;;;;;;2.90;2.25;;;;;;;20.81;46.26;98759.06;5052158;28;20515;-75
2022/05/05 10:24:20;;;;;;;3.78;2.10;;;;;;;20.95;46.25;98739.13;5049426;28;20059;-74
2022/05/05 10:26:57;;;;;;;5.43;2.47;;;;;;;21.08;44.89;98755.75;5048799;28;20029;-75
2022/05/05 10:29:35;;;;;;;5.07;3.28;;;;;;;21.15;44.55;98761.53;5045047;28;20432;-73
2022/05/05 10:32:30;;;;;;;5.20;3.00;;;;;;;21.03;43.27;98748.47;5047861;28;20052;-74
2022/05/05 10:35:15;;;;;;;5.35;2.97;;;;;;;20.88;43.23;98749.28;5048039;28;20094;-75
2022/05/05 10:37:41;;;;;;;5.60;3.08;;;;;;;20.80;43.20;98749.09;5040588;28;20027;-75
2022/05/05 10:40:08;;;;;;;4.70;2.75;;;;;;;20.88;44.24;98741.72;5048576;28;20040;-74
2022/05/05 10:42:42;;;;;;;3.35;2.75;;;;;;;21.03;44.75;98753.25;5049586;28;20029;-74
2022/05/05 10:45:13;;;;;;;3.55;2.40;;;;;;;21.19;43.09;98750.44;5047398;28;20045;-75
2022/05/05 10:50:28;;;;;;;2.70;2.50;;;;;;;21.33;42.25;98736.84;5048868;28;20033;-76
2022/05/05 10:52:54;;;;;;;3.25;2.33;;;;;;;21.33;42.25;98741.63;5048070;28;20090;-77
2022/05/05 10:55:26;;;;;;;4.32;2.53;;;;;;;21.44;43.13;98739.91;5047377;28;20045;-74
2022/05/05 10:57:53;;;;;;;4.43;2.58;;;;;;;21.61;43.32;98735.06;5048138;28;20112;-74
2022/05/05 11:00:18;;;;;;;4.00;2.55;;;;;;;21.70;43.15;98730.97;5049078;28;20053;-75
2022/05/05 11:02:56;;;;;;;4.53;3.03;;;;;;;21.79;42.63;98738.31;5049490;28;20147;-77
2022/05/05 11:05:23;;;;;;;6.30;2.67;;;;;;;21.73;42.80;98734.19;5049700;28;20460;-75
2022/05/05 11:07:51;;;;;;;5.43;2.85;;;;;;;21.83;42.94;98730.81;5049505;28;20029;-74
2022/05/05 11:13:39;;;;;;;3.38;2.55;;;;;;;22.04;42.03;98722.06;5051331;28;20048;-77
2022/05/05 11:22:18;;;;;;;5.43;2.88;;;;;;;22.11;41.88;98713.84;5048791;28;20132;-76
2022/05/05 11:24:48;;;;;;;4.32;2.58;;;;;;;22.21;42.00;98715.25;5049548;28;20108;-76
2022/05/05 11:27:19;;;;;;;5.72;2.80;;;;;;;22.32;41.46;98718.28;5049309;28;20084;-76
2022/05/05 11:29:56;;;;;;;5.07;2.47;;;;;;;22.39;41.52;98712.81;5048642;28;20033;-80
2022/05/05 11:32:32;;;;;;;5.32;2.35;;;;;;;22.52;41.63;98716.28;5046032;28;20056;-75
2022/05/05 11:34:59;;;;;;;3.65;2.70;;;;;;;22.69;40.90;98709.41;5047040;28;20033;-76
2022/05/05 11:37:29;;;;;;;5.20;2.83;;;;;;;22.79;39.86;98707.19;5047454;28;20060;-76
2022/05/05 11:39:55;;;;;;;6.65;3.33;;;;;;;22.72;40.25;98705.03;5048868;28;20059;-79
2022/05/05 11:42:20;;;;;;;3.72;2.30;;;;;;;22.69;39.85;98708.59;5048902;28;20112;-77
2022/05/05 11:44:46;;;;;;;5.53;3.17;;;;;;;22.71;40.10;98703.44;5049635;28;20462;-75
2022/05/05 11:47:18;;;;;;;3.35;3.05;;;;;;;22.85;40.01;98705.66;5049811;28;20025;-77
2022/05/05 11:49:46;;;;;;;3.83;2.75;;;;;;;22.96;39.06;98705.88;5047463;28;20026;-76
2022/05/05 11:52:17;;;;;;;4.13;3.00;;;;;;;23.04;39.24;98704.78;5047054;28;20040;-77
2022/05/05 11:54:47;;;;;;;3.53;2.40;;;;;;;23.18;39.73;98710.63;5048101;28;20028;-78
2022/05/05 11:57:29;;;;;;;4.18;3.30;;;;;;;23.36;38.13;98709.31;5047581;28;20051;-79
2022/05/05 12:02:39;;;;;;;3.88;2.70;;;;;;;23.50;38.91;98695.53;5046846;28;20515;-79
2022/05/05 12:05:08;;;;;;;4.55;2.85;;;;;;;23.63;39.07;98691.34;5048727;28;20033;-78
2022/05/05 12:07:34;;;;;;;4.80;2.55;;;;;;;23.73;38.06;98686.25;5045104;28;20154;-78
2022/05/05 12:10:06;;;;;;;4.60;2.42;;;;;;;23.88;38.08;98679.66;5048871;28;20056;-79
2022/05/05 12:12:32;;;;;;;4.18;3.05;;;;;;;24.03;37.47;98691.84;5048288;28;20962;-80
2022/05/05 12:15:02;;;;;;;4.45;2.72;;;;;;;24.19;38.21;98680.44;5048109;28;20035;-78
2022/05/05 12:17:42;;;;;;;3.08;2.78;;;;;;;24.50;37.55;98691.59;5049418;28;20496;-78
2022/05/05 12:20:11;;;;;;;4.82;3.20;;;;;;;24.62;37.07;98679.28;5053091;28;20029;-79